LSZS

Details ICAO LSZS (SMV)
Name Samedan
Region Switzerland
Timezone Europe/Zurich (UTC+1.0)
Plans Departing 152
Arriving 241
Stats Elevation 5,600 ft / 1,707 m (AMSL)
Location 46.534200° 9.883970°
Runways 1
Magnetic Variation 2.789° E
Sunrise 2019-01-20 06:58:14 UTC / 2019-01-20 07:58:14 Local
Sunset 2019-01-20 16:06:41 UTC / 2019-01-20 17:06:41 Local
Advertisement - Login to hide

Runways

ID Width Length Bearing (true/mag) Surface Threshold Overrun Markings Lighting
03 131 ft / 40 m 6,045 ft / 1,842 m 29.15° / 26.36° ASPHALT 0 ft / 0 m 0 ft / 0 m APP EDGE THRESHOLD MALSR
21 131 ft / 40 m 6,045 ft / 1,842 m 209.15° / 206.36° ASPHALT 361 ft / 110 m 0 ft / 0 m APP EDGE THRESHOLD MALSR

Map

Weather


0- 5 10 15 20 25 30 35+ Temperature / °C

Clouds and Precipitation
Forecast for 2019-01-20 12:00 UTC. Updated 2 hours ago

Ground ~20,000 ft ~40,000 ft Winds

METAR

LSZS 201120Z 00000KT CAVOK M14/M16 Q1008 RMK J

TAF

Not found

Frequencies

Recorded 136.60 MHz ATIS
Ground 135.22 MHz AFIS Ground
Tower 135.32 MHz AFIS
Warning: Do not use this data for real-world aviation or navigation. No guarantee of current accuracy is given.